createdAt,value
2018-03-23T00:02:09.996Z,7.10
2018-03-23T00:04:36.320Z,7.20
2018-03-23T00:07:02.638Z,7.20
2018-03-23T00:09:28.883Z,7.10
2018-03-23T00:11:55.551Z,7.10
2018-03-23T00:14:21.791Z,7.10
2018-03-23T00:16:48.028Z,7.10
2018-03-23T00:19:14.327Z,7.10
2018-03-23T00:21:40.586Z,7.10
2018-03-23T00:24:07.257Z,7.10
2018-03-23T00:26:33.492Z,7.10
2018-03-23T00:28:59.744Z,7.10
2018-03-23T00:31:26.028Z,7.10
2018-03-23T00:33:52.309Z,7.20
2018-03-23T00:36:18.552Z,7.20
2018-03-23T00:38:44.797Z,7.20
2018-03-23T00:41:11.040Z,7.20
2018-03-23T00:43:37.264Z,7.20
2018-03-23T00:46:03.572Z,7.10
2018-03-23T00:48:29.788Z,7.20
2018-03-23T00:50:56.067Z,7.20
2018-03-23T00:53:22.296Z,7.20
2018-03-23T00:55:49.419Z,7.20
2018-03-23T00:58:15.719Z,7.20
2018-03-23T01:00:42.012Z,7.20
2018-03-23T01:03:08.320Z,7.20
2018-03-23T01:05:34.593Z,7.10
2018-03-23T01:08:00.843Z,7.20
2018-03-23T01:10:27.127Z,7.20
2018-03-23T01:12:53.391Z,7.20
2018-03-23T01:15:19.663Z,7.10
2018-03-23T01:17:45.924Z,7.10
2018-03-23T01:20:12.207Z,7.10
2018-03-23T01:22:40.504Z,7.20
2018-03-23T01:25:07.584Z,7.20
2018-03-23T01:27:33.848Z,7.10
2018-03-23T01:30:00.140Z,7.10
2018-03-23T01:32:26.407Z,7.10
2018-03-23T01:34:53.263Z,7.10
2018-03-23T01:37:20.400Z,7.10
2018-03-23T01:39:46.623Z,7.10
2018-03-23T01:42:12.876Z,7.10
2018-03-23T01:44:39.100Z,7.00
2018-03-23T01:47:05.352Z,7.00
2018-03-23T01:49:31.644Z,6.90
2018-03-23T01:51:57.900Z,7.00
2018-03-23T01:54:24.440Z,7.00
2018-03-23T01:56:51.491Z,7.00
2018-03-23T01:59:17.732Z,7.00
2018-03-23T02:01:43.988Z,7.00
2018-03-23T02:04:11.011Z,7.00
2018-03-23T02:06:37.322Z,7.00
2018-03-23T02:09:03.607Z,7.10
2018-03-23T02:11:29.844Z,7.10
2018-03-23T02:13:56.063Z,7.10
2018-03-23T02:16:22.336Z,7.10
2018-03-23T02:18:48.615Z,7.10
2018-03-23T02:21:15.968Z,7.10
2018-03-23T02:23:42.253Z,7.10
2018-03-23T02:26:09.155Z,7.10
2018-03-23T02:28:35.435Z,7.10
2018-03-23T02:31:01.748Z,7.10
2018-03-23T02:33:28.032Z,7.00
2018-03-23T02:35:54.552Z,7.00
2018-03-23T02:38:20.827Z,7.00
2018-03-23T02:40:47.950Z,7.00
2018-03-23T02:43:14.220Z,7.00
2018-03-23T02:45:40.476Z,7.00
2018-03-23T02:48:06.740Z,7.00
2018-03-23T02:50:33.992Z,7.00
2018-03-23T02:53:00.252Z,6.90
2018-03-23T02:55:26.481Z,7.00
2018-03-23T02:57:52.772Z,7.00
2018-03-23T03:00:19.037Z,7.00
2018-03-23T03:02:45.303Z,7.00
2018-03-23T03:05:11.575Z,7.00
2018-03-23T03:07:37.872Z,7.00
2018-03-23T03:10:04.172Z,7.00
2018-03-23T03:12:30.459Z,6.90
2018-03-23T03:14:56.752Z,7.00
2018-03-23T03:17:23.055Z,6.90
2018-03-23T03:19:49.419Z,6.90
2018-03-23T03:22:15.672Z,6.80
2018-03-23T03:24:42.656Z,6.90
2018-03-23T03:27:09.255Z,6.90
2018-03-23T03:29:35.563Z,6.90
2018-03-23T03:32:01.936Z,6.90
2018-03-23T03:34:28.214Z,6.80
2018-03-23T03:36:54.558Z,6.90
2018-03-23T03:39:21.196Z,6.80
2018-03-23T03:41:47.479Z,6.70
2018-03-23T03:44:13.771Z,6.60
2018-03-23T03:46:40.033Z,6.50
2018-03-23T03:49:06.303Z,6.50
2018-03-23T03:51:32.732Z,6.40
2018-03-23T03:53:59.391Z,6.50
2018-03-23T03:56:25.715Z,6.40
2018-03-23T03:58:52.027Z,6.40
2018-03-23T04:01:18.305Z,6.30
2018-03-23T04:03:44.579Z,6.40
2018-03-23T04:06:10.903Z,6.40
2018-03-23T04:08:37.325Z,6.40
2018-03-23T04:11:03.956Z,6.40
2018-03-23T04:13:30.247Z,6.40
2018-03-23T04:15:56.552Z,6.40
2018-03-23T04:18:22.864Z,6.50
2018-03-23T04:20:49.184Z,6.50
2018-03-23T04:23:15.520Z,6.40
2018-03-23T04:25:41.852Z,6.40
2018-03-23T04:28:08.183Z,6.40
2018-03-23T04:30:34.480Z,6.40
2018-03-23T04:33:01.488Z,6.40
2018-03-23T04:35:28.521Z,6.30
2018-03-23T04:37:54.907Z,6.30
2018-03-23T04:40:21.187Z,6.30
2018-03-23T04:42:47.610Z,6.40
2018-03-23T04:45:13.892Z,6.40
2018-03-23T04:47:45.947Z,6.40
2018-03-23T04:50:12.282Z,6.50
2018-03-23T04:52:38.543Z,6.50
2018-03-23T04:55:05.315Z,6.50
2018-03-23T04:57:31.596Z,6.50
2018-03-23T04:59:57.935Z,6.60
2018-03-23T05:02:24.214Z,6.60
2018-03-23T05:04:51.312Z,6.60
2018-03-23T05:07:17.695Z,6.50
2018-03-23T05:09:43.955Z,6.50
2018-03-23T05:12:10.475Z,6.60
2018-03-23T05:14:36.748Z,6.70
2018-03-23T05:17:03.472Z,6.60
2018-03-23T05:19:30.131Z,6.60
2018-03-23T05:22:06.520Z,6.70
2018-03-23T05:24:34.452Z,6.60
2018-03-23T05:27:06.323Z,6.60
2018-03-23T05:29:32.627Z,6.50
2018-03-23T05:31:59.319Z,6.50
2018-03-23T05:34:25.602Z,6.50
2018-03-23T05:36:51.892Z,6.50
2018-03-23T05:39:18.881Z,6.50
2018-03-23T05:41:45.167Z,6.50
2018-03-23T05:44:12.172Z,6.40
2018-03-23T05:46:38.716Z,6.40
2018-03-23T05:49:05.055Z,6.40
2018-03-23T05:51:31.343Z,6.40
2018-03-23T05:53:57.603Z,6.50
2018-03-23T05:56:24.068Z,6.40
2018-03-23T05:58:50.311Z,6.50
2018-03-23T06:01:16.696Z,6.50
2018-03-23T06:03:42.962Z,6.60
2018-03-23T06:06:09.280Z,6.60
2018-03-23T06:08:35.581Z,6.70
2018-03-23T06:11:01.920Z,6.70
2018-03-23T06:13:28.200Z,6.60
2018-03-23T06:15:55.083Z,6.60
2018-03-23T06:18:21.364Z,6.60
2018-03-23T06:20:47.643Z,6.60
2018-03-23T06:23:13.932Z,6.50
2018-03-23T06:25:40.184Z,6.60
2018-03-23T06:28:07.056Z,6.60
2018-03-23T06:30:33.340Z,6.60
2018-03-23T06:32:59.866Z,6.70
2018-03-23T06:35:26.863Z,6.70
2018-03-23T06:37:53.127Z,6.70
2018-03-23T06:40:19.379Z,6.80
2018-03-23T06:42:45.655Z,6.70
2018-03-23T06:45:12.243Z,6.70
2018-03-23T06:47:38.568Z,6.70
2018-03-23T06:50:04.908Z,6.70
2018-03-23T06:52:31.527Z,6.70
2018-03-23T06:54:57.840Z,6.70
2018-03-23T06:57:24.104Z,6.70
2018-03-23T06:59:50.376Z,6.80
2018-03-23T07:02:17.571Z,6.80
2018-03-23T07:04:43.916Z,6.80
2018-03-23T07:07:10.184Z,6.80
2018-03-23T07:09:37.305Z,6.90
2018-03-23T07:12:04.344Z,7.00
2018-03-23T07:14:30.615Z,7.00
2018-03-23T07:16:56.931Z,7.10
2018-03-23T07:19:23.245Z,7.10
2018-03-23T07:21:49.535Z,7.20
2018-03-23T07:24:15.902Z,7.20
2018-03-23T07:26:42.619Z,7.20
2018-03-23T07:29:09.395Z,7.20
2018-03-23T07:31:35.641Z,7.30
2018-03-23T07:34:01.920Z,7.40
2018-03-23T07:36:28.180Z,7.50
2018-03-23T07:38:54.467Z,7.50
2018-03-23T07:41:20.979Z,7.60
2018-03-23T07:43:47.275Z,7.70
2018-03-23T07:46:13.564Z,7.60
2018-03-23T07:48:40.124Z,7.60
2018-03-23T07:51:06.400Z,7.70
2018-03-23T07:53:33.411Z,7.70
2018-03-23T07:56:00.471Z,7.70
2018-03-23T07:58:26.776Z,7.80
2018-03-23T08:00:53.044Z,7.80
2018-03-23T08:03:19.675Z,7.80
2018-03-23T08:05:46.080Z,7.80
2018-03-23T08:08:12.513Z,7.70
2018-03-23T08:10:39.583Z,8.00
2018-03-23T08:13:05.913Z,8.00
2018-03-23T08:15:32.213Z,8.10
2018-03-23T08:17:58.473Z,8.10
2018-03-23T08:20:25.060Z,8.00
2018-03-23T08:22:52.464Z,7.90
2018-03-23T08:25:18.852Z,7.90
2018-03-23T08:27:46.123Z,8.00
2018-03-23T08:30:12.392Z,8.10
2018-03-23T08:32:38.663Z,8.20
2018-03-23T08:35:05.388Z,8.40
2018-03-23T08:37:31.893Z,8.20
2018-03-23T08:39:59.231Z,8.20
2018-03-23T08:42:25.491Z,8.10
2018-03-23T08:44:51.796Z,8.10
2018-03-23T08:47:18.055Z,8.10
2018-03-23T08:49:44.323Z,8.30
2018-03-23T08:52:10.619Z,8.60
2018-03-23T08:54:36.883Z,8.80
2018-03-23T08:57:03.243Z,8.80
2018-03-23T08:59:29.508Z,9.10
2018-03-23T09:01:55.787Z,8.90
2018-03-23T09:04:22.103Z,8.80
2018-03-23T09:06:48.387Z,8.90
2018-03-23T09:09:14.955Z,8.90
2018-03-23T09:11:41.236Z,9.00
2018-03-23T09:14:07.511Z,9.10
2018-03-23T09:16:33.812Z,9.30
2018-03-23T09:19:00.088Z,9.40
2018-03-23T09:21:26.376Z,9.60
2018-03-23T09:23:53.372Z,10.10
2018-03-23T09:26:19.647Z,10.00
2018-03-23T09:28:45.938Z,10.20
2018-03-23T09:31:13.015Z,10.10
2018-03-23T09:33:39.244Z,10.00
2018-03-23T09:36:05.500Z,10.00
2018-03-23T09:38:32.498Z,9.70
2018-03-23T09:40:58.772Z,9.70
2018-03-23T09:43:25.091Z,9.60
2018-03-23T09:45:51.464Z,9.60
2018-03-23T09:48:17.779Z,9.70
2018-03-23T09:50:44.111Z,10.00
2018-03-23T09:53:11.276Z,10.40
2018-03-23T09:55:37.547Z,10.30
2018-03-23T09:58:03.842Z,10.50
2018-03-23T10:00:31.064Z,10.80
2018-03-23T10:02:57.319Z,10.80
2018-03-23T10:05:23.637Z,10.80
2018-03-23T10:07:50.095Z,11.00
2018-03-23T10:10:16.367Z,10.70
2018-03-23T10:12:42.617Z,10.80
2018-03-23T10:15:09.252Z,10.80
2018-03-23T10:17:36.215Z,10.70
2018-03-23T10:20:02.532Z,10.60
2018-03-23T10:22:28.796Z,10.60
2018-03-23T10:24:55.514Z,10.70
2018-03-23T10:27:21.772Z,10.40
2018-03-23T10:29:48.052Z,10.20
2018-03-23T10:32:14.315Z,10.10
2018-03-23T10:34:41.368Z,10.00
2018-03-23T10:37:07.647Z,10.00
2018-03-23T10:39:33.961Z,10.10
2018-03-23T10:42:00.246Z,10.00
2018-03-23T10:44:26.560Z,10.00
2018-03-23T10:46:52.811Z,10.00
2018-03-23T10:49:21.982Z,10.00
2018-03-23T10:51:48.292Z,10.00
2018-03-23T10:54:15.351Z,9.80
2018-03-23T10:56:41.612Z,9.80
2018-03-23T10:59:07.910Z,9.80
2018-03-23T11:01:37.023Z,9.60
2018-03-23T11:04:03.570Z,9.50
2018-03-23T11:06:29.851Z,9.50
2018-03-23T11:08:56.107Z,9.60
2018-03-23T11:11:22.395Z,9.40
2018-03-23T11:13:48.651Z,9.20
2018-03-23T11:16:15.064Z,9.00
2018-03-23T11:18:41.320Z,9.20
2018-03-23T11:21:07.620Z,9.10
2018-03-23T11:23:33.859Z,9.10
2018-03-23T11:26:00.140Z,9.20
2018-03-23T11:28:26.427Z,9.00
2018-03-23T11:30:53.046Z,9.00
2018-03-23T11:33:20.775Z,9.00
2018-03-23T11:35:47.049Z,9.00
2018-03-23T11:38:13.313Z,9.10
2018-03-23T11:40:39.637Z,9.20
2018-03-23T11:43:06.052Z,9.30
2018-03-23T11:45:32.314Z,9.50
2018-03-23T11:47:59.272Z,9.50
2018-03-23T11:50:25.628Z,9.40
2018-03-23T11:52:51.867Z,9.70
2018-03-23T11:55:18.103Z,9.70
2018-03-23T11:57:44.361Z,9.60
2018-03-23T12:00:11.476Z,9.60
2018-03-23T12:02:37.780Z,9.50
2018-03-23T12:05:04.015Z,9.40
2018-03-23T12:07:30.336Z,9.20
2018-03-23T12:09:56.518Z,9.10
2018-03-23T12:12:22.875Z,9.00
2018-03-23T12:14:49.235Z,9.00
2018-03-23T12:17:16.359Z,9.00
2018-03-23T12:19:43.339Z,9.00
2018-03-23T12:22:10.018Z,9.00
2018-03-23T12:24:36.239Z,9.10
2018-03-23T12:27:02.671Z,9.20
2018-03-23T12:29:28.904Z,9.20
2018-03-23T12:31:55.167Z,9.20
2018-03-23T12:34:21.401Z,9.30
2018-03-23T12:36:47.695Z,9.40
2018-03-23T12:39:13.999Z,9.20
2018-03-23T12:41:40.307Z,9.20
2018-03-23T12:44:06.556Z,9.10
2018-03-23T12:46:32.800Z,9.10
2018-03-23T12:48:59.062Z,9.30
2018-03-23T12:51:25.290Z,9.30
2018-03-23T12:53:51.564Z,9.20
2018-03-23T12:56:18.395Z,9.10
2018-03-23T12:58:45.740Z,9.20
2018-03-23T13:01:12.035Z,9.10
2018-03-23T13:03:38.327Z,9.00
2018-03-23T13:06:04.591Z,9.20
2018-03-23T13:08:30.848Z,9.10
2018-03-23T13:10:57.090Z,9.10
2018-03-23T13:13:29.038Z,8.90
2018-03-23T13:15:56.480Z,9.00
2018-03-23T13:18:22.740Z,9.00
2018-03-23T13:20:48.982Z,9.00
2018-03-23T13:23:15.240Z,9.00
2018-03-23T13:25:41.479Z,8.80
2018-03-23T13:28:07.764Z,8.90
2018-03-23T13:30:34.024Z,8.90
2018-03-23T13:33:00.261Z,9.00
2018-03-23T13:35:26.582Z,9.20
2018-03-23T13:37:52.970Z,9.40
2018-03-23T13:40:19.689Z,9.80
2018-03-23T13:42:45.936Z,9.90
2018-03-23T13:45:12.190Z,9.40
2018-03-23T13:47:38.431Z,9.20
2018-03-23T13:50:04.775Z,9.10
2018-03-23T13:52:30.951Z,9.10
2018-03-23T13:54:57.417Z,9.10
2018-03-23T13:57:24.293Z,9.00
2018-03-23T13:59:58.319Z,8.80
2018-03-23T14:02:24.793Z,8.70
2018-03-23T14:04:51.140Z,8.70
2018-03-23T14:07:17.695Z,8.70
2018-03-23T14:09:43.963Z,8.80
2018-03-23T14:12:10.188Z,8.90
2018-03-23T14:14:37.186Z,8.90
2018-03-23T14:17:03.415Z,8.90
2018-03-23T14:19:29.678Z,8.60
2018-03-23T14:21:55.931Z,8.70
2018-03-23T14:24:22.985Z,8.50
2018-03-23T14:26:49.248Z,8.50
2018-03-23T14:29:15.488Z,8.50
2018-03-23T14:31:41.747Z,8.40
2018-03-23T14:34:08.734Z,8.60
2018-03-23T14:36:35.055Z,8.60
2018-03-23T14:39:01.270Z,8.60
2018-03-23T14:41:28.256Z,8.60
2018-03-23T14:43:54.504Z,8.60
2018-03-23T14:46:20.757Z,8.70
2018-03-23T14:48:47.726Z,8.90
2018-03-23T14:51:14.015Z,8.90
2018-03-23T14:53:40.263Z,8.70
2018-03-23T14:56:07.544Z,8.60
2018-03-23T14:58:39.792Z,8.50
2018-03-23T15:01:06.073Z,8.40
2018-03-23T15:03:32.303Z,8.30
2018-03-23T15:05:58.551Z,8.30
2018-03-23T15:08:24.993Z,8.30
2018-03-23T15:10:51.264Z,8.20
2018-03-23T15:13:18.231Z,8.00
2018-03-23T15:15:44.501Z,8.00
2018-03-23T15:18:11.749Z,8.00
2018-03-23T15:20:38.036Z,8.00
2018-03-23T15:23:04.321Z,8.10
2018-03-23T15:25:30.664Z,8.20
2018-03-23T15:27:56.939Z,8.30
2018-03-23T15:30:23.219Z,8.20
2018-03-23T15:32:50.400Z,8.00
2018-03-23T15:35:16.653Z,7.90
2018-03-23T15:37:43.653Z,7.80
2018-03-23T15:40:09.956Z,7.80
2018-03-23T15:42:36.254Z,7.90
2018-03-23T15:45:03.264Z,7.90
2018-03-23T15:47:29.511Z,7.90
2018-03-23T15:49:56.238Z,7.90
2018-03-23T15:52:22.560Z,7.90
2018-03-23T15:54:49.674Z,7.90
2018-03-23T15:57:16.729Z,7.90
2018-03-23T15:59:42.951Z,7.90
2018-03-23T16:02:10.013Z,7.90
2018-03-23T16:04:38.380Z,7.90
2018-03-23T16:07:06.847Z,7.70
2018-03-23T16:09:33.116Z,7.70
2018-03-23T16:11:59.355Z,7.70
2018-03-23T16:14:25.798Z,7.70
2018-03-23T16:16:52.135Z,7.60
2018-03-23T16:19:20.564Z,7.70
2018-03-23T16:21:46.870Z,7.60
2018-03-23T16:24:13.903Z,7.50
2018-03-23T16:26:40.252Z,7.50
2018-03-23T16:29:07.559Z,7.50
2018-03-23T16:31:34.620Z,7.40
2018-03-23T16:34:00.859Z,7.50
2018-03-23T16:36:27.155Z,7.50
2018-03-23T16:38:54.150Z,7.70
2018-03-23T16:41:24.310Z,7.60
2018-03-23T16:43:51.364Z,7.80
2018-03-23T16:46:18.338Z,7.80
2018-03-23T16:48:44.951Z,7.80
2018-03-23T16:51:11.942Z,7.80
2018-03-23T16:53:38.268Z,7.80
2018-03-23T16:56:04.679Z,7.70
2018-03-23T16:58:31.691Z,7.70
2018-03-23T17:00:57.896Z,7.70
2018-03-23T17:03:24.146Z,7.70
2018-03-23T17:05:50.826Z,7.70
2018-03-23T17:08:17.074Z,7.70
2018-03-23T17:10:43.339Z,7.80
2018-03-23T17:13:09.632Z,7.80
2018-03-23T17:15:35.908Z,7.80
2018-03-23T17:18:02.158Z,7.80
2018-03-23T17:20:28.900Z,7.70
2018-03-23T17:22:56.007Z,7.70
2018-03-23T17:25:23.512Z,7.70
2018-03-23T17:27:50.480Z,7.60
2018-03-23T17:30:16.772Z,7.60
2018-03-23T17:32:42.999Z,7.60
2018-03-23T17:35:09.719Z,7.60
2018-03-23T17:37:36.509Z,7.60
2018-03-23T17:40:02.789Z,7.60
2018-03-23T17:42:29.051Z,7.60
2018-03-23T17:44:55.311Z,7.60
2018-03-23T17:47:21.698Z,7.50
2018-03-23T17:49:56.048Z,7.60
2018-03-23T17:52:22.423Z,7.50
2018-03-23T17:54:48.841Z,7.60
2018-03-23T17:57:15.111Z,7.50
2018-03-23T17:59:41.372Z,7.50
2018-03-23T18:02:07.615Z,7.50
2018-03-23T18:04:35.808Z,7.50
2018-03-23T18:07:02.298Z,7.50
2018-03-23T18:09:29.436Z,7.50
2018-03-23T18:11:56.067Z,7.50
2018-03-23T18:14:22.314Z,7.50
2018-03-23T18:16:52.024Z,7.60
2018-03-23T18:19:18.970Z,7.50
2018-03-23T18:21:47.041Z,7.60
2018-03-23T18:24:13.299Z,7.50
2018-03-23T18:26:39.577Z,7.60
2018-03-23T18:29:06.568Z,7.50
2018-03-23T18:31:32.843Z,7.50
2018-03-23T18:33:59.836Z,7.60
2018-03-23T18:36:26.252Z,7.50
2018-03-23T18:38:52.517Z,7.50
2018-03-23T18:41:18.789Z,7.60
2018-03-23T18:43:45.063Z,7.40
2018-03-23T18:46:11.336Z,7.40
2018-03-23T18:48:37.933Z,7.40
2018-03-23T18:51:04.797Z,7.40
2018-03-23T18:53:31.081Z,7.30
2018-03-23T18:56:03.088Z,7.30
2018-03-23T18:58:29.348Z,7.30
2018-03-23T19:00:59.584Z,7.30
2018-03-23T19:03:27.939Z,7.40
2018-03-23T19:05:54.507Z,7.40
2018-03-23T19:08:21.519Z,7.40
2018-03-23T19:10:47.953Z,7.40
2018-03-23T19:13:14.214Z,7.30
2018-03-23T19:15:41.365Z,7.30
2018-03-23T19:18:08.906Z,7.30
2018-03-23T19:20:35.280Z,7.30
2018-03-23T19:23:02.735Z,7.40
2018-03-23T19:25:29.004Z,7.40
2018-03-23T19:27:55.359Z,7.40
2018-03-23T19:30:22.191Z,7.30
2018-03-23T19:32:49.078Z,7.30
2018-03-23T19:35:15.307Z,7.30
2018-03-23T19:37:42.328Z,7.20
2018-03-23T19:40:08.651Z,7.20
2018-03-23T19:42:35.912Z,7.30
2018-03-23T19:45:02.523Z,7.20
2018-03-23T19:47:28.764Z,7.30
2018-03-23T19:49:55.015Z,7.30
2018-03-23T19:52:21.260Z,7.30
2018-03-23T19:54:48.308Z,7.30
2018-03-23T19:57:15.310Z,7.30
2018-03-23T19:59:41.624Z,7.20
2018-03-23T20:02:08.791Z,7.10
2018-03-23T20:04:35.055Z,7.10
2018-03-23T20:07:01.359Z,7.10
2018-03-23T20:09:27.631Z,7.20
2018-03-23T20:11:53.904Z,7.20
2018-03-23T20:14:20.867Z,7.20
2018-03-23T20:16:47.177Z,7.20
2018-03-23T20:19:14.004Z,7.20
2018-03-23T20:21:40.270Z,7.30
2018-03-23T20:24:12.747Z,7.20
2018-03-23T20:26:39.862Z,7.20
2018-03-23T20:29:06.368Z,7.20
2018-03-23T20:31:38.827Z,7.20
2018-03-23T20:34:05.407Z,7.20
2018-03-23T20:36:31.644Z,7.20
2018-03-23T20:38:57.883Z,7.10
2018-03-23T20:41:24.163Z,7.10
2018-03-23T20:43:50.628Z,7.20
2018-03-23T20:46:16.891Z,7.20
2018-03-23T20:48:43.493Z,7.10
2018-03-23T20:51:09.760Z,7.10
2018-03-23T20:53:36.041Z,7.10
2018-03-23T20:56:02.285Z,7.00
2018-03-23T20:58:28.575Z,7.00
2018-03-23T21:00:54.818Z,7.00
2018-03-23T21:03:21.093Z,7.10
2018-03-23T21:05:47.435Z,7.00
2018-03-23T21:08:13.696Z,7.00
2018-03-23T21:10:40.659Z,7.00
2018-03-23T21:13:06.931Z,7.00
2018-03-23T21:15:33.168Z,7.00
2018-03-23T21:17:59.427Z,7.00
2018-03-23T21:20:26.036Z,7.00
2018-03-23T21:22:52.323Z,6.90
2018-03-23T21:25:18.588Z,6.90
2018-03-23T21:27:44.855Z,7.00
2018-03-23T21:30:11.580Z,7.00
2018-03-23T21:32:39.216Z,7.00
2018-03-23T21:35:08.549Z,7.00
2018-03-23T21:37:39.115Z,7.00
2018-03-23T21:40:05.402Z,7.00
2018-03-23T21:42:31.640Z,7.00
2018-03-23T21:44:57.888Z,7.00
2018-03-23T21:47:25.138Z,6.90
2018-03-23T21:49:52.672Z,6.90
2018-03-23T21:52:19.737Z,6.90
2018-03-23T21:54:49.755Z,6.90
2018-03-23T21:57:17.961Z,6.90
2018-03-23T21:59:44.360Z,6.90
2018-03-23T22:02:14.181Z,6.90
2018-03-23T22:04:41.439Z,6.90
2018-03-23T22:07:10.139Z,6.90
2018-03-23T22:09:38.001Z,6.80
2018-03-23T22:12:05.251Z,6.90
2018-03-23T22:14:31.580Z,6.80
2018-03-23T22:16:57.954Z,6.90
2018-03-23T22:19:24.963Z,6.80
2018-03-23T22:21:51.248Z,6.80
2018-03-23T22:24:17.471Z,6.90
2018-03-23T22:26:44.635Z,6.90
2018-03-23T22:29:10.884Z,6.80
2018-03-23T22:31:37.164Z,6.80
2018-03-23T22:34:04.180Z,6.80
2018-03-23T22:36:32.345Z,6.80
2018-03-23T22:39:00.287Z,6.70
2018-03-23T22:41:26.900Z,6.70
2018-03-23T22:43:53.326Z,6.70
2018-03-23T22:46:19.602Z,6.70
2018-03-23T22:48:46.867Z,6.80
2018-03-23T22:51:13.139Z,6.80
2018-03-23T22:53:40.172Z,6.80
2018-03-23T22:56:06.404Z,6.80
2018-03-23T22:58:32.657Z,6.80
2018-03-23T23:01:01.153Z,6.80
2018-03-23T23:03:27.423Z,6.70
2018-03-23T23:05:54.432Z,6.70
2018-03-23T23:08:20.682Z,6.70
2018-03-23T23:10:46.910Z,6.80
2018-03-23T23:13:13.179Z,6.80
2018-03-23T23:15:40.183Z,6.80
2018-03-23T23:18:06.454Z,6.80
2018-03-23T23:20:32.707Z,6.80
2018-03-23T23:22:58.933Z,6.80
2018-03-23T23:25:25.184Z,6.80
2018-03-23T23:27:52.148Z,6.80
2018-03-23T23:30:19.152Z,6.80
2018-03-23T23:32:46.148Z,6.80
2018-03-23T23:35:13.749Z,6.80
2018-03-23T23:37:40.939Z,6.80
2018-03-23T23:40:07.267Z,6.80
2018-03-23T23:42:34.680Z,6.80
2018-03-23T23:45:02.280Z,6.70
2018-03-23T23:47:29.252Z,6.70
2018-03-23T23:49:56.891Z,6.80
2018-03-23T23:52:23.188Z,6.80
2018-03-23T23:54:50.336Z,6.70
2018-03-23T23:57:16.576Z,6.70
2018-03-23T23:59:42.830Z,6.70
